createdAt,value
2019-05-14T00:00:13.500Z,10.26
2019-05-14T00:01:13.496Z,10.28
2019-05-14T00:02:13.492Z,10.22
2019-05-14T00:03:13.483Z,10.22
2019-05-14T00:04:13.472Z,10.28
2019-05-14T00:05:13.463Z,10.20
2019-05-14T00:06:13.455Z,10.17
2019-05-14T00:07:13.447Z,10.20
2019-05-14T00:08:13.450Z,10.25
2019-05-14T00:09:13.434Z,10.22
2019-05-14T00:10:13.428Z,10.28
2019-05-14T00:11:13.417Z,10.20
2019-05-14T00:12:13.413Z,10.20
2019-05-14T00:13:13.405Z,10.17
2019-05-14T00:14:13.389Z,10.18
2019-05-14T00:15:13.383Z,10.24
2019-05-14T00:16:13.377Z,10.18
2019-05-14T00:17:13.370Z,10.10
2019-05-14T00:18:13.355Z,10.20
2019-05-14T00:19:13.351Z,10.24
2019-05-14T00:20:13.583Z,10.20
2019-05-14T00:21:13.340Z,10.13
2019-05-14T00:22:13.329Z,10.17
2019-05-14T00:23:13.324Z,10.17
2019-05-14T00:24:13.316Z,10.13
2019-05-14T00:25:13.303Z,10.13
2019-05-14T00:26:13.294Z,10.13
2019-05-14T00:27:13.286Z,10.10
2019-05-14T00:28:13.282Z,10.13
2019-05-14T00:29:13.272Z,10.06
2019-05-14T00:30:13.271Z,10.09
2019-05-14T00:31:13.253Z,10.06
2019-05-14T00:32:13.242Z,10.01
2019-05-14T00:33:13.241Z,10.01
2019-05-14T00:34:13.231Z,10.04
2019-05-14T00:35:13.226Z,9.99
2019-05-14T00:36:13.216Z,9.96
2019-05-14T00:37:13.204Z,9.96
2019-05-14T00:38:13.196Z,9.98
2019-05-14T00:39:13.188Z,10.01
2019-05-14T00:40:13.177Z,9.95
2019-05-14T00:41:13.177Z,9.95
2019-05-14T00:42:13.168Z,9.95
2019-05-14T00:43:13.160Z,9.88
2019-05-14T00:44:13.618Z,9.91
2019-05-14T00:45:13.138Z,9.91
2019-05-14T00:46:13.131Z,9.96
2019-05-14T00:47:13.129Z,9.92
2019-05-14T00:48:13.118Z,9.89
2019-05-14T00:49:13.106Z,9.86
2019-05-14T00:50:13.098Z,9.89
2019-05-14T00:51:13.088Z,9.92
2019-05-14T00:52:13.079Z,9.86
2019-05-14T00:53:13.075Z,9.83
2019-05-14T00:54:13.067Z,9.78
2019-05-14T00:55:13.060Z,9.73
2019-05-14T00:56:13.049Z,9.80
2019-05-14T00:57:13.038Z,9.73
2019-05-14T00:58:13.033Z,9.73
2019-05-14T00:59:13.024Z,9.81
2019-05-14T01:00:13.014Z,9.78
2019-05-14T01:01:13.011Z,9.78
2019-05-14T01:02:13.002Z,9.78
2019-05-14T01:03:12.990Z,9.78
2019-05-14T01:04:12.982Z,9.70
2019-05-14T01:05:12.976Z,9.71
2019-05-14T01:06:12.970Z,9.83
2019-05-14T01:07:12.958Z,9.73
2019-05-14T01:08:12.949Z,9.70
2019-05-14T01:09:12.938Z,9.63
2019-05-14T01:10:12.929Z,9.67
2019-05-14T01:11:12.920Z,9.70
2019-05-14T01:12:12.911Z,9.67
2019-05-14T01:13:12.907Z,9.63
2019-05-14T01:14:12.899Z,9.68
2019-05-14T01:15:14.208Z,9.62
2019-05-14T01:16:12.884Z,9.62
2019-05-14T01:17:12.873Z,9.65
2019-05-14T01:18:12.864Z,9.60
2019-05-14T01:19:12.858Z,9.48
2019-05-14T01:20:12.850Z,9.49
2019-05-14T01:21:12.839Z,9.52
2019-05-14T01:22:12.844Z,9.55
2019-05-14T01:23:12.818Z,9.55
2019-05-14T01:24:12.829Z,9.50
2019-05-14T01:25:12.806Z,9.40
2019-05-14T01:26:12.796Z,9.45
2019-05-14T01:27:12.790Z,9.45
2019-05-14T01:28:12.778Z,9.42
2019-05-14T01:29:12.768Z,9.38
2019-05-14T01:30:12.757Z,9.45
2019-05-14T01:31:14.794Z,9.41
2019-05-14T01:32:12.743Z,9.37
2019-05-14T01:33:12.740Z,9.40
2019-05-14T01:34:12.731Z,9.38
2019-05-14T01:35:12.720Z,9.31
2019-05-14T01:36:12.710Z,9.26
2019-05-14T01:37:12.705Z,9.26
2019-05-14T01:38:12.697Z,9.32
2019-05-14T01:39:12.685Z,9.26
2019-05-14T01:40:12.677Z,9.15
2019-05-14T01:41:12.663Z,9.17
2019-05-14T01:42:12.809Z,9.12
2019-05-14T01:43:12.650Z,9.15
2019-05-14T01:44:12.641Z,9.19
2019-05-14T01:45:23.921Z,9.16
2019-05-14T01:46:12.628Z,9.12
2019-05-14T01:47:12.879Z,9.19
2019-05-14T01:48:12.608Z,9.16
2019-05-14T01:49:12.595Z,9.16
2019-05-14T01:50:12.586Z,9.15
2019-05-14T01:51:12.582Z,9.12
2019-05-14T01:52:12.573Z,9.10
2019-05-14T01:53:12.559Z,9.15
2019-05-14T01:54:12.551Z,9.12
2019-05-14T01:55:12.546Z,9.00
2019-05-14T01:56:12.536Z,9.00
2019-05-14T01:57:12.532Z,9.00
2019-05-14T01:58:12.522Z,9.01
2019-05-14T01:59:12.515Z,9.03
2019-05-14T02:00:12.506Z,8.97
2019-05-14T02:01:12.496Z,9.01
2019-05-14T02:02:12.493Z,8.97
2019-05-14T02:03:12.473Z,9.01
2019-05-14T02:04:12.465Z,8.86
2019-05-14T02:05:12.662Z,8.85
2019-05-14T02:06:12.451Z,8.86
2019-05-14T02:07:15.943Z,8.85
2019-05-14T02:08:12.427Z,8.79
2019-05-14T02:09:12.424Z,8.76
2019-05-14T02:10:12.415Z,8.82
2019-05-14T02:11:12.409Z,8.75
2019-05-14T02:12:12.401Z,8.76
2019-05-14T02:13:12.437Z,8.71
2019-05-14T02:14:12.379Z,8.73
2019-05-14T02:15:12.371Z,8.80
2019-05-14T02:16:12.996Z,8.71
2019-05-14T02:17:12.653Z,8.64
2019-05-14T02:18:12.357Z,8.76
2019-05-14T02:19:12.336Z,8.71
2019-05-14T02:20:12.766Z,8.70
2019-05-14T02:21:12.312Z,8.68
2019-05-14T02:22:12.305Z,8.63
2019-05-14T02:23:12.301Z,8.55
2019-05-14T02:24:12.291Z,8.63
2019-05-14T02:25:12.279Z,8.57
2019-05-14T02:26:12.270Z,8.45
2019-05-14T02:27:12.535Z,8.49
2019-05-14T02:28:12.255Z,8.50
2019-05-14T02:29:12.630Z,8.57
2019-05-14T02:30:12.242Z,8.50
2019-05-14T02:31:12.231Z,8.55
2019-05-14T02:32:12.222Z,8.54
2019-05-14T02:33:12.210Z,8.52
2019-05-14T02:34:12.206Z,8.42
2019-05-14T02:35:12.188Z,8.43
2019-05-14T02:36:12.179Z,8.50
2019-05-14T02:37:12.176Z,8.49
2019-05-14T02:38:12.172Z,8.46
2019-05-14T02:39:12.158Z,8.40
2019-05-14T02:40:12.157Z,8.47
2019-05-14T02:41:12.142Z,8.39
2019-05-14T02:42:12.131Z,8.34
2019-05-14T02:43:12.138Z,8.31
2019-05-14T02:44:12.116Z,8.28
2019-05-14T02:45:12.103Z,8.31
2019-05-14T02:46:17.170Z,8.32
2019-05-14T02:47:12.083Z,8.31
2019-05-14T02:48:12.071Z,8.22
2019-05-14T02:49:12.070Z,8.22
2019-05-14T02:50:12.057Z,8.24
2019-05-14T02:51:12.051Z,8.27
2019-05-14T02:52:12.042Z,8.21
2019-05-14T02:53:12.030Z,8.17
2019-05-14T02:54:12.019Z,8.21
2019-05-14T02:55:12.016Z,8.20
2019-05-14T02:56:12.005Z,8.18
2019-05-14T02:57:11.994Z,8.17
2019-05-14T02:58:11.983Z,8.10
2019-05-14T02:59:11.972Z,8.17
2019-05-14T03:00:11.961Z,8.17
2019-05-14T03:01:11.970Z,8.13
2019-05-14T03:02:11.948Z,8.17
2019-05-14T03:03:11.941Z,8.17
2019-05-14T03:04:11.934Z,8.09
2019-05-14T03:05:11.923Z,8.04
2019-05-14T03:06:11.908Z,8.07
2019-05-14T03:07:11.901Z,8.18
2019-05-14T03:08:11.893Z,8.12
2019-05-14T03:09:11.884Z,8.04
2019-05-14T03:10:11.879Z,8.04
2019-05-14T03:11:11.865Z,7.94
2019-05-14T03:12:11.855Z,7.95
2019-05-14T03:13:11.852Z,7.99
2019-05-14T03:14:11.841Z,7.94
2019-05-14T03:15:11.829Z,7.92
2019-05-14T03:16:26.110Z,7.94
2019-05-14T03:17:11.807Z,7.99
2019-05-14T03:18:11.798Z,8.00
2019-05-14T03:19:11.793Z,7.94
2019-05-14T03:20:11.778Z,7.92
2019-05-14T03:21:11.775Z,7.91
2019-05-14T03:22:11.776Z,7.85
2019-05-14T03:23:18.234Z,7.88
2019-05-14T03:24:11.763Z,7.92
2019-05-14T03:25:11.741Z,7.86
2019-05-14T03:26:11.727Z,7.91
2019-05-14T03:27:11.723Z,7.89
2019-05-14T03:28:11.711Z,7.89
2019-05-14T03:29:11.702Z,7.89
2019-05-14T03:30:13.355Z,7.84
2019-05-14T03:31:13.043Z,7.92
2019-05-14T03:32:13.445Z,7.85
2019-05-14T03:33:13.256Z,7.86
2019-05-14T03:34:13.495Z,7.88
2019-05-14T03:35:13.679Z,7.89
2019-05-14T03:36:18.031Z,7.85
2019-05-14T03:37:13.311Z,7.89
2019-05-14T03:38:11.631Z,7.92
2019-05-14T03:39:11.608Z,7.92
2019-05-14T03:40:11.596Z,7.89
2019-05-14T03:41:14.052Z,7.84
2019-05-14T03:42:11.588Z,7.89
2019-05-14T03:43:11.576Z,7.86
2019-05-14T03:44:11.560Z,7.86
2019-05-14T03:45:11.562Z,7.85
2019-05-14T03:46:11.546Z,7.82
2019-05-14T03:47:11.544Z,7.86
2019-05-14T03:48:11.532Z,7.92
2019-05-14T03:49:11.511Z,7.89
2019-05-14T03:50:11.500Z,7.89
2019-05-14T03:51:11.496Z,7.85
2019-05-14T03:52:11.483Z,7.82
2019-05-14T03:53:11.491Z,7.84
2019-05-14T03:54:12.946Z,7.76
2019-05-14T03:55:11.493Z,7.82
2019-05-14T03:56:11.454Z,7.81
2019-05-14T03:57:11.443Z,7.74
2019-05-14T03:58:11.430Z,7.69
2019-05-14T03:59:11.542Z,7.66
2019-05-14T04:00:11.420Z,7.70
2019-05-14T04:01:11.403Z,7.70
2019-05-14T04:02:11.400Z,7.67
2019-05-14T04:03:11.383Z,7.66
2019-05-14T04:04:11.372Z,7.60
2019-05-14T04:05:11.373Z,7.62
2019-05-14T04:06:11.366Z,7.70
2019-05-14T04:07:11.355Z,7.57
2019-05-14T04:08:11.340Z,7.69
2019-05-14T04:09:11.329Z,7.69
2019-05-14T04:10:11.317Z,7.63
2019-05-14T04:11:11.313Z,7.73
2019-05-14T04:12:11.301Z,7.71
2019-05-14T04:13:11.298Z,7.69
2019-05-14T04:14:11.288Z,7.67
2019-05-14T04:15:11.286Z,7.71
2019-05-14T04:16:11.264Z,7.74
2019-05-14T04:17:15.426Z,7.77
2019-05-14T04:18:11.256Z,7.81
2019-05-14T04:19:11.238Z,7.77
2019-05-14T04:20:11.258Z,7.85
2019-05-14T04:21:11.223Z,7.88
2019-05-14T04:22:11.207Z,7.84
2019-05-14T04:23:11.214Z,7.82
2019-05-14T04:24:11.186Z,7.86
2019-05-14T04:25:11.478Z,7.85
2019-05-14T04:26:11.193Z,7.84
2019-05-14T04:27:13.035Z,7.91
2019-05-14T04:28:11.159Z,7.88
2019-05-14T04:29:11.149Z,7.89
2019-05-14T04:30:11.136Z,8.02
2019-05-14T04:31:11.134Z,7.86
2019-05-14T04:32:11.368Z,7.96
2019-05-14T04:33:11.108Z,7.96
2019-05-14T04:34:11.099Z,8.02
2019-05-14T04:35:11.087Z,8.04
2019-05-14T04:36:11.079Z,8.04
2019-05-14T04:37:11.071Z,8.03
2019-05-14T04:38:11.062Z,8.03
2019-05-14T04:39:11.056Z,8.14
2019-05-14T04:40:11.055Z,8.13
2019-05-14T04:41:11.033Z,8.14
2019-05-14T04:42:11.025Z,8.27
2019-05-14T04:43:11.018Z,8.27
2019-05-14T04:44:11.011Z,8.40
2019-05-14T04:45:11.560Z,8.47
2019-05-14T04:46:11.104Z,8.58
2019-05-14T04:47:27.931Z,8.79
2019-05-14T04:48:27.254Z,8.91
2019-05-14T04:49:10.969Z,9.03
2019-05-14T04:50:11.107Z,9.15
2019-05-14T04:51:10.961Z,9.20
2019-05-14T04:52:10.941Z,9.40
2019-05-14T04:53:10.942Z,9.50
2019-05-14T04:54:10.922Z,9.58
2019-05-14T04:55:10.922Z,9.71
2019-05-14T04:56:10.909Z,9.83
2019-05-14T04:57:10.966Z,9.95
2019-05-14T04:58:10.899Z,9.96
2019-05-14T04:59:10.896Z,10.11
2019-05-14T05:00:12.249Z,10.24
2019-05-14T05:01:10.876Z,10.24
2019-05-14T05:02:10.876Z,10.49
2019-05-14T05:03:12.772Z,10.63
2019-05-14T05:04:10.858Z,10.88
2019-05-14T05:05:10.840Z,11.05
2019-05-14T05:06:10.834Z,11.48
2019-05-14T05:07:10.829Z,11.56
2019-05-14T05:08:14.172Z,12.00
2019-05-14T05:09:10.831Z,12.18
2019-05-14T05:10:10.817Z,12.23
2019-05-14T05:11:10.806Z,12.34
2019-05-14T05:12:10.796Z,12.54
2019-05-14T05:13:10.787Z,13.09
2019-05-14T05:14:10.782Z,13.65
2019-05-14T05:15:10.787Z,14.05
2019-05-14T05:16:10.778Z,14.27
2019-05-14T05:17:10.769Z,14.36
2019-05-14T05:18:10.761Z,14.34
2019-05-14T05:19:10.769Z,14.57
2019-05-14T05:20:10.743Z,14.71
2019-05-14T05:21:10.742Z,15.00
2019-05-14T05:22:10.738Z,15.27
2019-05-14T05:23:10.734Z,15.70
2019-05-14T05:24:10.729Z,15.85
2019-05-14T05:25:10.720Z,16.03
2019-05-14T05:26:10.714Z,16.33
2019-05-14T05:27:10.712Z,16.57
2019-05-14T05:28:10.706Z,16.52
2019-05-14T05:29:10.709Z,16.27
2019-05-14T05:30:10.706Z,16.34
2019-05-14T05:31:10.696Z,16.66
2019-05-14T05:32:10.692Z,17.10
2019-05-14T05:33:10.684Z,17.30
2019-05-14T05:34:10.681Z,17.57
2019-05-14T05:35:10.682Z,17.49
2019-05-14T05:36:10.678Z,17.47
2019-05-14T05:37:10.671Z,17.58
2019-05-14T05:38:10.668Z,17.35
2019-05-14T05:39:10.669Z,17.63
2019-05-14T05:40:10.667Z,17.39
2019-05-14T05:41:10.668Z,17.40
2019-05-14T05:42:10.668Z,17.76
2019-05-14T05:43:10.666Z,17.51
2019-05-14T05:44:10.671Z,17.30
2019-05-14T05:45:10.658Z,17.62
2019-05-14T05:46:10.657Z,17.63
2019-05-14T05:47:10.655Z,18.19
2019-05-14T05:48:10.651Z,18.49
2019-05-14T05:49:10.656Z,18.59
2019-05-14T05:50:10.655Z,18.69
2019-05-14T05:51:10.648Z,18.50
2019-05-14T05:52:10.648Z,18.82
2019-05-14T05:53:10.651Z,18.93
2019-05-14T05:54:10.656Z,19.50
2019-05-14T05:55:10.654Z,19.70
2019-05-14T05:56:10.651Z,19.55
2019-05-14T05:57:10.648Z,19.95
2019-05-14T05:58:10.649Z,20.50
2019-05-14T05:59:10.648Z,20.87
2019-05-14T06:00:10.645Z,21.49
2019-05-14T06:01:10.652Z,21.85
2019-05-14T06:02:10.652Z,22.06
2019-05-14T06:03:11.345Z,22.09
2019-05-14T06:04:10.655Z,22.19
2019-05-14T06:05:10.653Z,22.08
2019-05-14T06:06:13.462Z,22.31
2019-05-14T06:07:10.661Z,21.98
2019-05-14T06:08:10.659Z,21.61
2019-05-14T06:09:10.659Z,21.71
2019-05-14T06:10:10.660Z,21.37
2019-05-14T06:11:10.659Z,20.60
2019-05-14T06:12:10.663Z,19.97
2019-05-14T06:13:13.816Z,19.67
2019-05-14T06:14:10.673Z,20.00
2019-05-14T06:15:14.098Z,19.95
2019-05-14T06:16:10.676Z,20.40
2019-05-14T06:17:10.674Z,20.35
2019-05-14T06:18:17.822Z,20.69
2019-05-14T06:19:10.684Z,21.38
2019-05-14T06:20:10.684Z,20.53
2019-05-14T06:21:10.696Z,19.43
2019-05-14T06:22:10.693Z,19.71
2019-05-14T06:23:10.695Z,20.33
2019-05-14T06:24:10.696Z,20.78
2019-05-14T06:25:11.534Z,21.15
2019-05-14T06:26:11.856Z,20.83
2019-05-14T06:27:10.707Z,20.51
2019-05-14T06:28:10.709Z,20.48
2019-05-14T06:29:10.710Z,20.96
2019-05-14T06:30:10.711Z,21.15
2019-05-14T06:31:10.716Z,20.44
2019-05-14T06:32:10.717Z,20.19
2019-05-14T06:33:10.724Z,19.46
2019-05-14T06:34:10.729Z,19.27
2019-05-14T06:35:10.737Z,19.13
2019-05-14T06:36:14.379Z,18.79
2019-05-14T06:37:10.738Z,17.95
2019-05-14T06:38:10.739Z,18.13
2019-05-14T06:39:10.747Z,18.39
2019-05-14T06:40:10.759Z,18.68
2019-05-14T06:41:10.751Z,19.13
2019-05-14T06:42:10.755Z,18.26
2019-05-14T06:43:10.756Z,18.79
2019-05-14T06:44:10.755Z,19.61
2019-05-14T06:45:10.764Z,19.87
2019-05-14T06:46:10.766Z,19.46
2019-05-14T06:47:10.776Z,19.24
2019-05-14T06:48:26.373Z,19.65
2019-05-14T06:49:10.771Z,19.47
2019-05-14T06:50:10.783Z,19.27
2019-05-14T06:51:10.795Z,18.94
2019-05-14T06:52:10.781Z,19.20
2019-05-14T06:53:10.790Z,19.02
2019-05-14T06:54:10.793Z,19.35
2019-05-14T06:55:10.794Z,19.61
2019-05-14T06:56:10.795Z,19.76
2019-05-14T06:57:10.803Z,20.33
2019-05-14T06:58:10.805Z,20.63
2019-05-14T06:59:10.809Z,21.09
2019-05-14T07:00:10.811Z,21.71
2019-05-14T07:01:10.810Z,21.86
2019-05-14T07:02:10.815Z,22.19
2019-05-14T07:03:10.821Z,21.64
2019-05-14T07:04:10.822Z,20.64
2019-05-14T07:05:10.835Z,20.56
2019-05-14T07:06:10.835Z,20.93
2019-05-14T07:07:10.839Z,20.68
2019-05-14T07:08:10.844Z,20.22
2019-05-14T07:09:10.841Z,18.84
2019-05-14T07:10:10.847Z,18.86
2019-05-14T07:11:10.857Z,18.72
2019-05-14T07:12:10.859Z,18.56
2019-05-14T07:13:10.858Z,19.38
2019-05-14T07:14:11.605Z,19.65
2019-05-14T07:15:10.870Z,18.91
2019-05-14T07:16:10.874Z,18.87
2019-05-14T07:17:10.881Z,19.13
2019-05-14T07:18:10.885Z,19.50
2019-05-14T07:19:10.889Z,19.79
2019-05-14T07:20:10.896Z,20.41
2019-05-14T07:21:10.899Z,21.31
2019-05-14T07:22:10.898Z,21.73
2019-05-14T07:23:10.900Z,21.15
2019-05-14T07:24:10.905Z,21.37
2019-05-14T07:25:10.913Z,21.06
2019-05-14T07:26:10.915Z,21.26
2019-05-14T07:27:10.916Z,20.85
2019-05-14T07:28:10.919Z,21.59
2019-05-14T07:29:11.723Z,21.79
2019-05-14T07:30:10.934Z,20.88
2019-05-14T07:31:10.943Z,20.51
2019-05-14T07:32:10.945Z,20.88
2019-05-14T07:33:10.949Z,20.48
2019-05-14T07:34:10.951Z,20.73
2019-05-14T07:35:10.956Z,21.40
2019-05-14T07:36:10.961Z,20.68
2019-05-14T07:37:10.968Z,20.54
2019-05-14T07:38:10.978Z,19.31
2019-05-14T07:39:10.977Z,19.30
2019-05-14T07:40:10.981Z,19.62
2019-05-14T07:41:11.002Z,19.72
2019-05-14T07:42:10.988Z,20.12
2019-05-14T07:43:10.997Z,20.83
2019-05-14T07:44:11.000Z,21.56
2019-05-14T07:45:10.998Z,22.09
2019-05-14T07:46:11.004Z,22.26
2019-05-14T07:47:11.012Z,22.59
2019-05-14T07:48:11.015Z,22.46
2019-05-14T07:49:11.897Z,22.06
2019-05-14T07:50:11.028Z,21.89
2019-05-14T07:51:11.033Z,22.59
2019-05-14T07:52:11.038Z,22.84
2019-05-14T07:53:11.038Z,22.99
2019-05-14T07:54:11.043Z,22.99
2019-05-14T07:55:11.046Z,22.19
2019-05-14T07:56:11.050Z,22.14
2019-05-14T07:57:11.062Z,21.96
2019-05-14T07:58:11.084Z,22.19
2019-05-14T07:59:11.069Z,22.67
2019-05-14T08:00:11.070Z,23.23
2019-05-14T08:01:11.084Z,23.56
2019-05-14T08:02:12.808Z,23.97
2019-05-14T08:03:11.094Z,23.45
2019-05-14T08:04:11.876Z,22.60
2019-05-14T08:05:11.102Z,22.15
2019-05-14T08:06:11.113Z,21.77
2019-05-14T08:07:11.116Z,21.67
2019-05-14T08:08:11.124Z,21.06
2019-05-14T08:09:11.122Z,21.37
2019-05-14T08:10:11.125Z,21.70
2019-05-14T08:11:11.135Z,22.33
2019-05-14T08:12:12.732Z,23.07
2019-05-14T08:13:11.151Z,23.63
2019-05-14T08:14:11.155Z,24.15
2019-05-14T08:15:17.654Z,24.64
2019-05-14T08:16:11.164Z,24.80
2019-05-14T08:17:11.178Z,25.38
2019-05-14T08:18:11.179Z,24.97
2019-05-14T08:19:24.463Z,23.81
2019-05-14T08:20:11.191Z,22.89
2019-05-14T08:21:11.194Z,23.34
2019-05-14T08:22:11.198Z,23.47
2019-05-14T08:23:11.206Z,24.16
2019-05-14T08:24:11.213Z,24.64
2019-05-14T08:25:11.220Z,25.02
2019-05-14T08:26:11.230Z,25.45
2019-05-14T08:27:11.240Z,26.24
2019-05-14T08:28:11.244Z,27.08
2019-05-14T08:29:11.249Z,27.93
2019-05-14T08:30:11.258Z,27.66
2019-05-14T08:31:11.267Z,26.08
2019-05-14T08:32:11.278Z,25.66
2019-05-14T08:33:11.282Z,25.63
2019-05-14T08:34:11.293Z,26.27
2019-05-14T08:35:11.300Z,26.87
2019-05-14T08:36:11.304Z,27.55
2019-05-14T08:37:11.317Z,27.78
2019-05-14T08:38:12.227Z,27.63
2019-05-14T08:39:11.337Z,27.16
2019-05-14T08:40:11.347Z,25.36
2019-05-14T08:41:11.355Z,25.27
2019-05-14T08:42:11.376Z,25.14
2019-05-14T08:43:11.373Z,25.29
2019-05-14T08:44:11.383Z,25.54
2019-05-14T08:45:13.921Z,26.11
2019-05-14T08:46:11.408Z,25.85
2019-05-14T08:47:11.413Z,26.78
2019-05-14T08:48:11.422Z,27.61
2019-05-14T08:49:11.443Z,27.61
2019-05-14T08:50:11.450Z,26.72
2019-05-14T08:51:11.456Z,26.28
2019-05-14T08:52:11.465Z,25.79
2019-05-14T08:53:11.471Z,26.46
2019-05-14T08:54:11.482Z,26.65
2019-05-14T08:55:13.916Z,27.33
2019-05-14T08:56:12.299Z,27.33
2019-05-14T08:57:11.590Z,27.99
2019-05-14T08:58:13.921Z,26.97
2019-05-14T08:59:11.544Z,27.65
2019-05-14T09:00:14.365Z,27.66
2019-05-14T09:01:11.562Z,27.98
2019-05-14T09:02:11.573Z,28.72
2019-05-14T09:03:11.589Z,29.48
2019-05-14T09:04:11.599Z,29.35
2019-05-14T09:05:11.610Z,29.70
2019-05-14T09:06:11.620Z,29.66
2019-05-14T09:07:11.630Z,30.03
2019-05-14T09:08:11.642Z,30.21
2019-05-14T09:09:11.658Z,30.16
2019-05-14T09:10:11.671Z,29.14
2019-05-14T09:11:11.687Z,29.54
2019-05-14T09:12:12.694Z,29.69
2019-05-14T09:13:11.708Z,28.35
2019-05-14T09:14:11.723Z,27.78
2019-05-14T09:15:11.732Z,28.15
2019-05-14T09:16:11.744Z,29.17
2019-05-14T09:17:14.824Z,29.67
2019-05-14T09:18:12.083Z,30.16
2019-05-14T09:19:11.785Z,28.62
2019-05-14T09:20:12.064Z,27.98
2019-05-14T09:21:11.814Z,27.03
2019-05-14T09:22:11.827Z,27.08
2019-05-14T09:23:11.847Z,27.46
2019-05-14T09:24:11.855Z,27.39
2019-05-14T09:25:11.864Z,27.50
2019-05-14T09:26:11.878Z,27.66
2019-05-14T09:27:11.890Z,27.18
2019-05-14T09:28:11.907Z,26.50
2019-05-14T09:29:22.500Z,27.08
2019-05-14T09:30:11.933Z,27.23
2019-05-14T09:31:11.944Z,26.75
2019-05-14T09:32:11.954Z,26.44
2019-05-14T09:33:11.964Z,26.49
2019-05-14T09:34:12.015Z,26.54
2019-05-14T09:35:11.994Z,26.27
2019-05-14T09:36:19.354Z,25.81
2019-05-14T09:37:12.023Z,26.41
2019-05-14T09:38:12.025Z,27.25
2019-05-14T09:39:12.377Z,27.93
2019-05-14T09:40:12.052Z,28.45
2019-05-14T09:41:15.173Z,28.98
2019-05-14T09:42:12.082Z,28.70
2019-05-14T09:43:12.094Z,26.94
2019-05-14T09:44:12.105Z,27.28
2019-05-14T09:45:12.112Z,27.09
2019-05-14T09:46:12.124Z,25.96
2019-05-14T09:47:12.135Z,25.31
2019-05-14T09:48:12.149Z,24.86
2019-05-14T09:49:12.160Z,25.24
2019-05-14T09:50:19.351Z,26.12
2019-05-14T09:51:12.176Z,26.75
2019-05-14T09:52:12.187Z,27.27
2019-05-14T09:53:12.199Z,27.21
2019-05-14T09:54:12.209Z,26.34
2019-05-14T09:55:12.223Z,26.47
2019-05-14T09:56:12.230Z,25.60
2019-05-14T09:57:12.242Z,26.29
2019-05-14T09:58:12.249Z,26.68
2019-05-14T09:59:12.257Z,25.89
2019-05-14T10:00:14.548Z,24.77
2019-05-14T10:01:12.280Z,23.97
2019-05-14T10:02:12.289Z,23.16
2019-05-14T10:03:12.297Z,23.81
2019-05-14T10:04:12.305Z,22.51
2019-05-14T10:05:12.328Z,21.83
2019-05-14T10:06:12.323Z,21.08
2019-05-14T10:07:15.511Z,21.40
2019-05-14T10:08:12.336Z,21.90
2019-05-14T10:09:12.340Z,22.78
2019-05-14T10:10:12.348Z,23.44
2019-05-14T10:11:12.370Z,24.08
2019-05-14T10:12:12.364Z,25.01
2019-05-14T10:13:12.379Z,26.12
2019-05-14T10:14:12.384Z,26.42
2019-05-14T10:15:12.390Z,26.08
2019-05-14T10:16:12.396Z,25.16
2019-05-14T10:17:12.401Z,24.33
2019-05-14T10:18:12.732Z,23.97
2019-05-14T10:19:12.420Z,23.78
2019-05-14T10:20:12.426Z,23.39
2019-05-14T10:21:12.439Z,23.14
2019-05-14T10:22:12.444Z,23.94
2019-05-14T10:23:12.451Z,24.39
2019-05-14T10:24:12.458Z,23.53
2019-05-14T10:25:12.465Z,23.82
2019-05-14T10:26:12.474Z,23.04
2019-05-14T10:27:12.480Z,23.16
2019-05-14T10:28:12.487Z,22.44
2019-05-14T10:29:12.487Z,21.93
2019-05-14T10:30:12.495Z,21.59
2019-05-14T10:31:13.467Z,22.29
2019-05-14T10:32:12.507Z,23.06
2019-05-14T10:33:15.063Z,23.82
2019-05-14T10:34:12.526Z,23.39
2019-05-14T10:35:12.536Z,23.04
2019-05-14T10:36:12.541Z,22.11
2019-05-14T10:37:12.545Z,21.82
2019-05-14T10:38:12.552Z,22.01
2019-05-14T10:39:12.560Z,21.71
2019-05-14T10:40:12.566Z,21.56
2019-05-14T10:41:12.567Z,21.16
2019-05-14T10:42:12.572Z,20.58
2019-05-14T10:43:12.576Z,20.12
2019-05-14T10:44:12.580Z,20.25
2019-05-14T10:45:13.171Z,20.81
2019-05-14T10:46:12.595Z,21.18
2019-05-14T10:47:12.601Z,21.82
2019-05-14T10:48:12.604Z,22.69
2019-05-14T10:49:22.605Z,22.94
2019-05-14T10:50:13.911Z,23.75
2019-05-14T10:51:12.619Z,23.92
2019-05-14T10:52:12.621Z,24.00
2019-05-14T10:53:12.636Z,24.36
2019-05-14T10:54:22.393Z,25.01
2019-05-14T10:55:12.641Z,25.35
2019-05-14T10:56:12.645Z,24.60
2019-05-14T10:57:12.657Z,24.09
2019-05-14T10:58:12.665Z,23.56
2019-05-14T10:59:12.667Z,23.16
2019-05-14T11:00:12.701Z,22.24
2019-05-14T11:01:12.674Z,22.26
2019-05-14T11:02:12.683Z,22.97
2019-05-14T11:03:12.688Z,23.03
2019-05-14T11:04:12.695Z,23.03
2019-05-14T11:05:12.705Z,23.52
2019-05-14T11:06:12.710Z,23.72
2019-05-14T11:07:12.723Z,23.93
2019-05-14T11:08:12.734Z,24.19
2019-05-14T11:09:12.728Z,24.61
2019-05-14T11:10:12.736Z,24.77
2019-05-14T11:11:12.746Z,25.02
2019-05-14T11:12:12.753Z,24.52
2019-05-14T11:13:12.755Z,24.29
2019-05-14T11:14:12.764Z,24.55
2019-05-14T11:15:12.775Z,24.36
2019-05-14T11:16:12.774Z,23.35
2019-05-14T11:17:12.792Z,22.66
2019-05-14T11:18:12.795Z,22.45
2019-05-14T11:19:12.804Z,22.45
2019-05-14T11:20:12.821Z,22.17
2019-05-14T11:21:24.993Z,21.83
2019-05-14T11:22:12.821Z,21.63
2019-05-14T11:23:12.825Z,21.63
2019-05-14T11:24:12.829Z,21.64
2019-05-14T11:25:12.842Z,21.27
2019-05-14T11:26:12.846Z,21.37
2019-05-14T11:27:12.846Z,21.06
2019-05-14T11:28:12.850Z,20.72
2019-05-14T11:29:12.859Z,20.66
2019-05-14T11:30:12.868Z,20.42
2019-05-14T11:31:12.871Z,20.10
2019-05-14T11:32:12.875Z,19.76
2019-05-14T11:33:12.875Z,19.43
2019-05-14T11:34:12.878Z,19.39
2019-05-14T11:35:13.248Z,19.39
2019-05-14T11:36:12.887Z,19.34
2019-05-14T11:37:12.892Z,19.47
2019-05-14T11:38:28.795Z,19.64
2019-05-14T11:39:12.895Z,19.68
2019-05-14T11:40:12.897Z,19.53
2019-05-14T11:41:12.894Z,19.38
2019-05-14T11:42:12.899Z,19.13
2019-05-14T11:43:12.904Z,18.90
2019-05-14T11:44:12.904Z,18.79
2019-05-14T11:45:12.900Z,18.83
2019-05-14T11:46:12.911Z,18.35
2019-05-14T11:47:12.911Z,18.26
2019-05-14T11:48:12.908Z,18.34
2019-05-14T11:49:12.911Z,18.19
2019-05-14T11:50:12.925Z,18.38
2019-05-14T11:51:12.916Z,18.44
2019-05-14T11:52:13.008Z,18.21
2019-05-14T11:53:12.914Z,18.20
2019-05-14T11:54:12.911Z,18.41
2019-05-14T11:55:12.908Z,18.59
2019-05-14T11:56:12.908Z,18.69
2019-05-14T11:57:12.911Z,18.69
2019-05-14T11:58:12.916Z,18.72
2019-05-14T11:59:12.906Z,18.90
2019-05-14T12:00:12.905Z,19.05
2019-05-14T12:01:12.911Z,19.05
2019-05-14T12:02:12.908Z,18.74
2019-05-14T12:03:12.910Z,18.68
2019-05-14T12:04:12.911Z,18.64
2019-05-14T12:05:12.906Z,18.78
2019-05-14T12:06:12.910Z,18.68
2019-05-14T12:07:12.905Z,18.32
2019-05-14T12:08:12.904Z,18.19
2019-05-14T12:09:12.906Z,18.23
2019-05-14T12:10:12.906Z,18.20
2019-05-14T12:11:12.904Z,18.19
2019-05-14T12:12:12.970Z,18.19
2019-05-14T12:13:12.898Z,18.16
2019-05-14T12:14:12.895Z,18.25
2019-05-14T12:15:12.900Z,18.32
2019-05-14T12:16:12.899Z,18.50
2019-05-14T12:17:12.893Z,18.66
2019-05-14T12:18:12.897Z,18.59
2019-05-14T12:19:12.899Z,18.53
2019-05-14T12:20:12.892Z,18.34
2019-05-14T12:21:12.895Z,18.21
2019-05-14T12:22:13.025Z,18.49
2019-05-14T12:23:12.891Z,18.69
2019-05-14T12:24:13.845Z,18.75
2019-05-14T12:25:12.886Z,18.90
2019-05-14T12:26:12.891Z,18.83
2019-05-14T12:27:12.880Z,19.01
2019-05-14T12:28:13.817Z,18.79
2019-05-14T12:29:12.879Z,18.65
2019-05-14T12:30:12.878Z,18.47
2019-05-14T12:31:12.872Z,18.60
2019-05-14T12:32:13.246Z,18.76
2019-05-14T12:33:12.874Z,18.68
2019-05-14T12:34:12.873Z,18.60
2019-05-14T12:35:12.876Z,18.54
2019-05-14T12:36:12.870Z,18.35
2019-05-14T12:37:12.867Z,18.34
2019-05-14T12:38:12.879Z,18.38
2019-05-14T12:39:12.861Z,18.32
2019-05-14T12:40:12.873Z,18.31
2019-05-14T12:41:12.863Z,18.20
2019-05-14T12:42:12.875Z,18.11
2019-05-14T12:43:12.856Z,17.74
2019-05-14T12:44:12.855Z,17.73
2019-05-14T12:45:12.847Z,17.55
2019-05-14T12:46:12.846Z,17.68
2019-05-14T12:47:12.850Z,17.83
2019-05-14T12:48:12.848Z,18.04
2019-05-14T12:49:12.839Z,18.04
2019-05-14T12:50:12.839Z,18.01
2019-05-14T12:51:12.842Z,17.98
2019-05-14T12:52:24.536Z,17.94
2019-05-14T12:53:12.838Z,17.94
2019-05-14T12:54:12.840Z,17.86
2019-05-14T12:55:12.841Z,17.81
2019-05-14T12:56:12.829Z,17.94
2019-05-14T12:57:12.825Z,18.10
2019-05-14T12:58:12.822Z,18.05
2019-05-14T12:59:12.820Z,17.94
2019-05-14T13:00:12.815Z,17.99
2019-05-14T13:01:12.817Z,17.98